createdAt,value
2022-09-20T00:01:33.373Z,4.43
2022-09-20T00:04:05.753Z,8.57
2022-09-20T00:06:35.251Z,5.97
2022-09-20T00:09:04.840Z,6.40
2022-09-20T00:11:35.548Z,6.22
2022-09-20T00:14:06.561Z,5.53
2022-09-20T00:16:40.316Z,5.03
2022-09-20T00:19:10.093Z,12.40
2022-09-20T00:21:38.463Z,16.80
2022-09-20T00:24:07.664Z,21.60
2022-09-20T00:26:36.632Z,18.55
2022-09-20T00:29:06.171Z,27.75
2022-09-20T00:31:37.341Z,27.77
2022-09-20T00:34:23.310Z,29.55
2022-09-20T00:36:52.039Z,24.77
2022-09-20T00:39:20.476Z,13.32
2022-09-20T00:41:48.838Z,13.80
2022-09-20T00:44:52.553Z,25.85
2022-09-20T00:47:27.711Z,24.07
2022-09-20T00:50:01.561Z,40.10
2022-09-20T00:52:31.430Z,20.77
2022-09-20T00:55:01.933Z,16.13
2022-09-20T00:57:35.705Z,12.00
2022-09-20T01:02:38.883Z,10.93
2022-09-20T01:05:11.189Z,12.70
2022-09-20T01:07:40.272Z,10.63
2022-09-20T01:10:09.140Z,7.80
2022-09-20T01:12:40.877Z,8.68
2022-09-20T01:15:11.374Z,12.35
2022-09-20T01:17:44.641Z,13.45
2022-09-20T01:20:20.713Z,8.55
2022-09-20T01:23:24.022Z,9.30
2022-09-20T01:26:23.630Z,8.88
2022-09-20T01:29:02.438Z,8.88
2022-09-20T01:31:35.616Z,7.82
2022-09-20T01:34:08.824Z,8.20
2022-09-20T01:36:45.364Z,11.43
2022-09-20T01:39:20.332Z,8.13
2022-09-20T01:41:55.536Z,8.05
2022-09-20T01:44:32.472Z,5.20
2022-09-20T01:47:07.200Z,6.00
2022-09-20T01:49:47.185Z,9.45
2022-09-20T01:52:56.393Z,4.88
2022-09-20T01:55:59.455Z,7.18
2022-09-20T01:59:24.747Z,8.50
2022-09-20T02:02:10.245Z,7.55
2022-09-20T02:05:14.919Z,3.65
2022-09-20T02:10:40.297Z,7.63
2022-09-20T02:13:12.931Z,9.55
2022-09-20T02:16:16.896Z,4.43
2022-09-20T02:19:10.947Z,6.97
2022-09-20T02:21:46.622Z,5.70
2022-09-20T02:24:24.708Z,5.32
2022-09-20T02:27:08.666Z,6.70
2022-09-20T02:29:48.194Z,4.43
2022-09-20T02:32:31.919Z,5.03
2022-09-20T02:35:34.193Z,8.65
2022-09-20T02:38:13.202Z,4.90
2022-09-20T02:41:10.976Z,6.00
2022-09-20T02:43:46.575Z,7.22
2022-09-20T02:46:22.681Z,3.55
2022-09-20T02:49:00.359Z,5.15
2022-09-20T02:51:37.556Z,4.80
2022-09-20T02:54:19.228Z,6.13
2022-09-20T02:56:57.769Z,4.68
2022-09-20T02:59:37.108Z,4.95
2022-09-20T03:02:19.845Z,3.95
2022-09-20T03:04:58.859Z,6.38
2022-09-20T03:07:36.098Z,3.22
2022-09-20T03:10:17.566Z,3.63
2022-09-20T03:12:58.187Z,5.10
2022-09-20T03:15:35.442Z,4.05
2022-09-20T03:18:12.637Z,5.60
2022-09-20T03:20:51.816Z,4.70
2022-09-20T03:23:37.419Z,2.90
2022-09-20T03:26:16.950Z,5.47
2022-09-20T03:29:02.525Z,3.33
2022-09-20T03:31:53.097Z,5.07
2022-09-20T03:34:37.383Z,2.55
2022-09-20T03:37:21.911Z,2.03
2022-09-20T03:40:13.280Z,3.10
2022-09-20T03:42:49.972Z,2.30
2022-09-20T03:45:42.692Z,3.70
2022-09-20T03:48:29.843Z,3.60
2022-09-20T03:51:21.537Z,2.35
2022-09-20T03:54:36.832Z,3.20
2022-09-20T03:57:53.487Z,6.20
2022-09-20T04:00:26.166Z,7.07
2022-09-20T04:03:05.637Z,3.65
2022-09-20T04:05:47.038Z,3.60
2022-09-20T04:08:31.627Z,4.90
2022-09-20T04:11:09.000Z,3.05
2022-09-20T04:13:41.411Z,5.68
2022-09-20T04:16:23.981Z,2.53
2022-09-20T04:18:58.452Z,3.67
2022-09-20T04:21:33.469Z,1.70
2022-09-20T04:24:11.847Z,3.53
2022-09-20T04:26:46.557Z,4.47
2022-09-20T04:29:34.609Z,4.57
2022-09-20T04:32:11.633Z,2.70
2022-09-20T04:35:03.548Z,3.67
2022-09-20T04:37:34.618Z,7.70
2022-09-20T04:40:16.358Z,5.80
2022-09-20T04:43:24.479Z,2.67
2022-09-20T04:46:21.495Z,3.47
2022-09-20T04:49:29.827Z,4.47
2022-09-20T04:52:40.231Z,3.97
2022-09-20T04:55:37.412Z,2.88
2022-09-20T04:58:47.130Z,2.38
2022-09-20T05:01:49.592Z,6.55
2022-09-20T05:04:57.891Z,5.00
2022-09-20T05:08:17.368Z,3.83
2022-09-20T05:11:27.844Z,1.98
2022-09-20T05:14:13.003Z,3.83
2022-09-20T05:16:59.274Z,5.90
2022-09-20T05:19:35.719Z,3.28
2022-09-20T05:22:42.307Z,4.13
2022-09-20T05:25:35.094Z,7.60
2022-09-20T05:28:11.731Z,2.42
2022-09-20T05:30:47.446Z,3.00
2022-09-20T05:33:26.078Z,4.25
2022-09-20T05:36:06.619Z,4.03
2022-09-20T05:38:47.441Z,4.72
2022-09-20T05:41:25.120Z,3.70
2022-09-20T05:44:02.831Z,4.82
2022-09-20T05:46:38.260Z,3.22
2022-09-20T05:49:23.840Z,4.18
2022-09-20T05:52:08.866Z,4.97
2022-09-20T05:55:02.399Z,2.53
2022-09-20T05:57:48.119Z,6.20
2022-09-20T06:00:19.832Z,3.60
2022-09-20T06:02:56.264Z,6.10
2022-09-20T06:05:44.091Z,3.10
2022-09-20T06:08:53.055Z,4.55
2022-09-20T06:11:48.009Z,1.80
2022-09-20T06:14:39.576Z,3.03
2022-09-20T06:17:19.103Z,6.57
2022-09-20T06:19:54.237Z,4.90
2022-09-20T06:22:29.799Z,5.07
2022-09-20T06:25:04.534Z,5.75
2022-09-20T06:27:39.420Z,7.75
2022-09-20T06:30:16.140Z,4.97
2022-09-20T06:32:56.096Z,6.10
2022-09-20T06:35:27.644Z,4.88
2022-09-20T06:38:25.500Z,6.38
2022-09-20T06:41:11.441Z,6.97
2022-09-20T06:43:40.639Z,5.55
2022-09-20T06:46:10.769Z,4.97
2022-09-20T06:48:40.112Z,6.43
2022-09-20T06:51:09.514Z,8.45
2022-09-20T06:53:42.863Z,5.13
2022-09-20T06:56:17.227Z,6.72
2022-09-20T06:58:45.887Z,7.38
2022-09-20T07:01:15.106Z,6.40
2022-09-20T07:03:46.169Z,7.05
2022-09-20T07:06:19.954Z,4.38
2022-09-20T07:11:18.980Z,4.47
2022-09-20T07:13:52.287Z,2.80
2022-09-20T07:16:21.130Z,2.90
2022-09-20T07:18:50.176Z,5.85
2022-09-20T07:21:20.428Z,2.47
2022-09-20T07:23:51.451Z,7.72
2022-09-20T07:26:22.126Z,4.18
2022-09-20T07:28:50.973Z,3.75
2022-09-20T07:31:19.943Z,4.30
2022-09-20T07:33:48.454Z,2.88
2022-09-20T07:36:17.706Z,5.53
2022-09-20T07:38:50.606Z,5.68
2022-09-20T07:41:19.958Z,5.35
2022-09-20T07:43:48.387Z,2.75
2022-09-20T07:46:16.752Z,5.65
2022-09-20T07:48:45.179Z,7.25
2022-09-20T07:51:15.030Z,6.47
2022-09-20T07:53:43.819Z,4.40
2022-09-20T07:56:18.525Z,3.63
2022-09-20T07:58:52.170Z,4.57
2022-09-20T08:01:23.256Z,2.80
2022-09-20T08:03:52.288Z,3.38
2022-09-20T08:06:21.543Z,7.13
2022-09-20T08:08:51.755Z,4.63
2022-09-20T08:11:27.748Z,6.25
2022-09-20T08:14:12.840Z,5.53
2022-09-20T08:16:43.514Z,6.63
2022-09-20T08:19:17.464Z,5.05
2022-09-20T08:21:46.045Z,5.28
2022-09-20T08:24:16.543Z,4.93
2022-09-20T08:26:46.613Z,10.02
2022-09-20T08:29:15.411Z,10.10
2022-09-20T08:31:44.690Z,4.35
2022-09-20T08:34:15.285Z,5.38
2022-09-20T08:36:47.018Z,4.60
2022-09-20T08:42:14.667Z,4.65
2022-09-20T08:45:00.461Z,6.22
2022-09-20T08:47:31.747Z,3.83
2022-09-20T08:50:09.041Z,4.22
2022-09-20T08:52:40.903Z,7.28
2022-09-20T08:55:17.994Z,6.03
2022-09-20T08:57:50.590Z,3.05
2022-09-20T09:00:21.099Z,4.53
2022-09-20T09:02:53.587Z,6.05
2022-09-20T09:05:32.879Z,4.68
2022-09-20T09:08:05.039Z,4.40
2022-09-20T09:10:45.914Z,4.00
2022-09-20T09:13:25.001Z,3.75
2022-09-20T09:15:58.308Z,6.40
2022-09-20T09:18:34.953Z,5.05
2022-09-20T09:21:05.528Z,3.38
2022-09-20T09:23:42.750Z,5.00
2022-09-20T09:26:19.875Z,4.03
2022-09-20T09:29:10.049Z,3.45
2022-09-20T09:31:39.883Z,4.55
2022-09-20T09:34:26.029Z,4.03
2022-09-20T09:36:55.715Z,4.35
2022-09-20T09:39:29.632Z,4.38
2022-09-20T09:42:01.308Z,4.80
2022-09-20T09:44:34.073Z,3.10
2022-09-20T09:47:02.681Z,3.53
2022-09-20T09:49:36.577Z,4.45
2022-09-20T09:52:13.793Z,3.65
2022-09-20T09:54:47.133Z,4.03
2022-09-20T09:57:32.104Z,4.32
2022-09-20T10:00:18.132Z,3.10
2022-09-20T10:03:09.037Z,2.97
2022-09-20T10:05:44.247Z,5.10
2022-09-20T10:08:25.397Z,5.15
2022-09-20T10:11:09.344Z,3.50
2022-09-20T10:13:45.884Z,2.13
2022-09-20T10:16:29.283Z,3.28
2022-09-20T10:19:08.424Z,4.82
2022-09-20T10:21:49.071Z,2.92
2022-09-20T10:24:30.769Z,3.10
2022-09-20T10:27:20.406Z,7.50
2022-09-20T10:30:01.789Z,3.30
2022-09-20T10:32:46.898Z,2.97
2022-09-20T10:35:26.223Z,4.20
2022-09-20T10:38:14.690Z,5.82
2022-09-20T10:41:21.784Z,4.22
2022-09-20T10:44:05.085Z,2.50
2022-09-20T10:46:47.003Z,2.17
2022-09-20T10:49:28.478Z,1.60
2022-09-20T10:52:17.795Z,3.17
2022-09-20T10:55:05.396Z,1.23
2022-09-20T10:57:57.051Z,2.63
2022-09-20T11:00:27.652Z,1.88
2022-09-20T11:03:10.520Z,3.15
2022-09-20T11:05:48.735Z,2.47
2022-09-20T11:08:22.954Z,2.38
2022-09-20T11:10:55.578Z,2.80
2022-09-20T11:13:31.704Z,3.00
2022-09-20T11:16:07.092Z,4.32
2022-09-20T11:18:40.883Z,3.35
2022-09-20T11:23:53.618Z,3.90
2022-09-20T11:26:29.545Z,1.95
2022-09-20T11:29:02.955Z,3.60
2022-09-20T11:31:36.213Z,2.80
2022-09-20T11:34:13.882Z,2.35
2022-09-20T11:36:52.419Z,2.10
2022-09-20T11:39:24.162Z,2.10
2022-09-20T11:41:56.995Z,3.65
2022-09-20T11:44:25.536Z,4.47
2022-09-20T11:47:00.075Z,2.50
2022-09-20T11:49:46.983Z,2.85
2022-09-20T11:52:36.964Z,2.22
2022-09-20T11:55:41.529Z,0.68
2022-09-20T12:00:43.196Z,3.50
2022-09-20T12:03:25.623Z,3.03
2022-09-20T12:06:00.436Z,1.95
2022-09-20T12:08:33.714Z,3.17
2022-09-20T12:11:06.515Z,2.08
2022-09-20T12:13:39.066Z,1.40
2022-09-20T12:16:09.362Z,2.05
2022-09-20T12:19:02.007Z,2.80
2022-09-20T12:21:30.475Z,2.50
2022-09-20T12:24:19.188Z,1.15
2022-09-20T12:26:49.844Z,1.55
2022-09-20T12:29:57.509Z,1.67
2022-09-20T12:32:55.184Z,2.30
2022-09-20T12:36:00.926Z,0.90
2022-09-20T12:38:46.756Z,0.77
2022-09-20T12:41:27.610Z,1.23
2022-09-20T12:44:00.815Z,2.25
2022-09-20T12:46:36.307Z,1.00
2022-09-20T12:49:55.552Z,2.72
2022-09-20T12:53:00.788Z,2.17
2022-09-20T12:55:52.997Z,0.90
2022-09-20T12:58:35.135Z,0.65
2022-09-20T13:01:29.295Z,2.80
2022-09-20T13:06:46.732Z,3.05
2022-09-20T13:09:16.777Z,2.17
2022-09-20T13:11:49.035Z,2.80
2022-09-20T13:14:22.940Z,3.13
2022-09-20T13:16:55.168Z,4.35
2022-09-20T13:19:29.846Z,3.85
2022-09-20T13:22:02.630Z,3.88
2022-09-20T13:24:35.786Z,1.57
2022-09-20T13:27:09.154Z,3.58
2022-09-20T13:29:42.471Z,4.13
2022-09-20T13:32:18.878Z,5.55
2022-09-20T13:34:47.350Z,2.80
2022-09-20T13:37:23.722Z,0.68
2022-09-20T13:39:57.873Z,3.58
2022-09-20T13:42:28.941Z,1.08
2022-09-20T13:44:59.904Z,1.10
2022-09-20T13:47:30.449Z,0.73
2022-09-20T13:50:03.235Z,5.60
2022-09-20T13:52:33.148Z,2.73
2022-09-20T13:55:01.457Z,3.15
2022-09-20T13:57:32.192Z,3.38
2022-09-20T14:00:02.770Z,0.65
2022-09-20T14:02:34.003Z,3.65
2022-09-20T14:05:06.055Z,1.85
2022-09-20T14:07:37.006Z,5.32
2022-09-20T14:10:06.192Z,4.47
2022-09-20T14:12:35.988Z,3.90
2022-09-20T14:15:11.530Z,2.97
2022-09-20T14:17:40.149Z,1.85
2022-09-20T14:20:15.536Z,1.40
2022-09-20T14:22:45.438Z,2.63
2022-09-20T14:25:22.528Z,2.53
2022-09-20T14:28:06.466Z,1.33
2022-09-20T14:30:38.719Z,1.55
2022-09-20T14:33:16.148Z,1.17
2022-09-20T14:35:49.512Z,1.05
2022-09-20T14:38:20.702Z,0.57
2022-09-20T14:40:50.760Z,0.95
2022-09-20T14:43:27.021Z,1.23
2022-09-20T14:46:00.762Z,0.95
2022-09-20T14:51:22.291Z,0.85
2022-09-20T14:53:52.741Z,2.50
2022-09-20T14:56:33.898Z,1.40
2022-09-20T14:59:07.435Z,1.90
2022-09-20T15:01:41.265Z,1.05
2022-09-20T15:04:12.407Z,1.33
2022-09-20T15:06:40.844Z,1.40
2022-09-20T15:09:12.367Z,3.47
2022-09-20T15:11:42.373Z,1.15
2022-09-20T15:14:10.687Z,2.10
2022-09-20T15:16:40.643Z,1.38
2022-09-20T15:19:11.114Z,3.25
2022-09-20T15:21:39.422Z,2.00
2022-09-20T15:24:07.924Z,2.85
2022-09-20T15:26:36.255Z,1.80
2022-09-20T15:29:04.783Z,2.72
2022-09-20T15:31:33.255Z,5.00
2022-09-20T15:34:03.078Z,4.68
2022-09-20T15:36:32.386Z,5.93
2022-09-20T15:39:01.358Z,3.03
2022-09-20T15:41:31.478Z,2.08
2022-09-20T15:44:01.779Z,2.58
2022-09-20T15:46:30.281Z,3.33
2022-09-20T15:49:01.279Z,3.20
2022-09-20T15:51:31.582Z,2.63
2022-09-20T15:54:01.526Z,3.58
2022-09-20T15:56:31.649Z,2.05
2022-09-20T15:59:01.322Z,2.75
2022-09-20T16:01:32.189Z,3.05
2022-09-20T16:04:01.701Z,2.97
2022-09-20T16:06:33.931Z,4.30
2022-09-20T16:09:02.254Z,4.70
2022-09-20T16:11:31.134Z,4.60
2022-09-20T16:14:02.010Z,4.13
2022-09-20T16:16:36.097Z,5.93
2022-09-20T16:19:20.976Z,4.57
2022-09-20T16:21:58.081Z,2.65
2022-09-20T16:24:29.484Z,3.70
2022-09-20T16:26:58.096Z,4.65
2022-09-20T16:29:27.060Z,2.55
2022-09-20T16:31:56.663Z,3.13
2022-09-20T16:34:28.539Z,2.00
2022-09-20T16:37:00.095Z,3.92
2022-09-20T16:39:29.779Z,3.50
2022-09-20T16:42:01.161Z,4.32
2022-09-20T16:44:29.547Z,6.05
2022-09-20T16:46:57.955Z,4.43
2022-09-20T16:49:29.603Z,2.50
2022-09-20T16:51:59.472Z,4.30
2022-09-20T16:54:31.720Z,3.35
2022-09-20T16:57:00.864Z,4.10
2022-09-20T16:59:29.231Z,5.78
2022-09-20T17:01:58.031Z,3.60
2022-09-20T17:04:26.477Z,3.95
2022-09-20T17:06:54.874Z,2.95
2022-09-20T17:09:24.696Z,2.45
2022-09-20T17:11:53.911Z,2.78
2022-09-20T17:14:22.596Z,1.65
2022-09-20T17:16:51.416Z,2.38
2022-09-20T17:19:21.791Z,1.48
2022-09-20T17:21:51.930Z,5.15
2022-09-20T17:24:21.280Z,5.53
2022-09-20T17:26:52.082Z,2.22
2022-09-20T17:29:21.940Z,2.40
2022-09-20T17:31:58.795Z,3.33
2022-09-20T17:34:29.619Z,4.22
2022-09-20T17:36:57.997Z,3.33
2022-09-20T17:39:26.351Z,4.50
2022-09-20T17:41:56.052Z,3.15
2022-09-20T17:44:24.483Z,5.18
2022-09-20T17:46:54.298Z,2.42
2022-09-20T17:49:24.531Z,3.28
2022-09-20T17:51:54.364Z,4.15
2022-09-20T17:54:24.720Z,3.53
2022-09-20T17:56:56.787Z,2.92
2022-09-20T17:59:25.521Z,3.05
2022-09-20T18:01:55.057Z,2.97
2022-09-20T18:04:24.702Z,6.00
2022-09-20T18:06:54.762Z,10.30
2022-09-20T18:09:25.628Z,12.93
2022-09-20T18:11:57.020Z,9.30
2022-09-20T18:14:27.618Z,9.25
2022-09-20T18:16:58.209Z,9.60
2022-09-20T18:19:33.030Z,4.82
2022-09-20T18:22:02.305Z,2.72
2022-09-20T18:24:31.779Z,6.22
2022-09-20T18:27:01.925Z,5.70
2022-09-20T18:29:33.624Z,6.20
2022-09-20T18:32:02.358Z,6.40
2022-09-20T18:34:32.727Z,3.67
2022-09-20T18:37:04.212Z,2.55
2022-09-20T18:39:33.868Z,3.80
2022-09-20T18:42:04.003Z,5.07
2022-09-20T18:44:34.459Z,6.00
2022-09-20T18:47:04.251Z,2.63
2022-09-20T18:49:33.539Z,4.65
2022-09-20T18:52:02.113Z,6.90
2022-09-20T18:54:33.726Z,11.13
2022-09-20T18:57:04.189Z,32.35
2022-09-20T18:59:32.853Z,41.55
2022-09-20T19:02:20.039Z,37.90
2022-09-20T19:05:23.786Z,27.88
2022-09-20T19:08:17.052Z,24.83
2022-09-20T19:10:50.007Z,21.92
2022-09-20T19:13:30.974Z,20.83
2022-09-20T19:16:15.627Z,21.38
2022-09-20T19:19:09.355Z,18.75
2022-09-20T19:21:46.844Z,18.33
2022-09-20T19:24:26.401Z,15.75
2022-09-20T19:26:55.106Z,17.95
2022-09-20T19:29:27.054Z,18.55
2022-09-20T19:31:57.651Z,14.73
2022-09-20T19:34:28.077Z,15.63
2022-09-20T19:37:05.643Z,16.30
2022-09-20T19:39:46.365Z,13.85
2022-09-20T19:42:21.963Z,12.57
2022-09-20T19:44:57.132Z,10.32
2022-09-20T19:47:36.910Z,10.50
2022-09-20T19:50:12.881Z,9.88
2022-09-20T19:52:41.952Z,8.10
2022-09-20T19:55:13.407Z,8.25
2022-09-20T19:57:47.080Z,9.32
2022-09-20T20:02:47.743Z,13.88
2022-09-20T20:05:18.814Z,11.68
2022-09-20T20:07:53.928Z,13.25
2022-09-20T20:10:31.550Z,10.85
2022-09-20T20:13:28.889Z,8.57
2022-09-20T20:16:03.422Z,7.55
2022-09-20T20:18:41.699Z,8.63
2022-09-20T20:21:18.559Z,7.05
2022-09-20T20:24:09.136Z,5.78
2022-09-20T20:26:37.524Z,7.22
2022-09-20T20:29:06.069Z,4.45
2022-09-20T20:31:36.024Z,5.25
2022-09-20T20:34:04.849Z,4.05
2022-09-20T20:36:33.235Z,5.57
2022-09-20T20:39:03.073Z,5.32
2022-09-20T20:41:32.078Z,6.65
2022-09-20T20:44:00.446Z,3.50
2022-09-20T20:46:29.305Z,5.20
2022-09-20T20:48:59.464Z,6.45
2022-09-20T20:51:28.299Z,4.22
2022-09-20T20:53:58.367Z,3.58
2022-09-20T20:56:28.991Z,3.47
2022-09-20T20:59:00.955Z,5.60
2022-09-20T21:01:30.883Z,2.95
2022-09-20T21:04:01.074Z,3.97
2022-09-20T21:06:32.095Z,2.30
2022-09-20T21:09:00.547Z,5.60
2022-09-20T21:11:30.551Z,2.13
2022-09-20T21:14:01.046Z,4.13
2022-09-20T21:16:31.361Z,2.00
2022-09-20T21:19:01.455Z,2.33
2022-09-20T21:21:31.654Z,1.63
2022-09-20T21:24:02.099Z,4.30
2022-09-20T21:26:33.226Z,2.60
2022-09-20T21:29:02.896Z,3.05
2022-09-20T21:31:32.621Z,3.20
2022-09-20T21:34:03.271Z,3.28
2022-09-20T21:36:32.040Z,2.47
2022-09-20T21:39:00.392Z,5.90
2022-09-20T21:41:30.571Z,2.60
2022-09-20T21:44:00.704Z,3.45
2022-09-20T21:46:30.531Z,3.50
2022-09-20T21:48:59.894Z,4.45
2022-09-20T21:51:31.287Z,3.60
2022-09-20T21:54:01.879Z,3.60
2022-09-20T21:56:32.731Z,5.32
2022-09-20T21:59:04.086Z,6.22
2022-09-20T22:01:34.746Z,3.22
2022-09-20T22:04:07.244Z,3.22
2022-09-20T22:06:39.027Z,6.28
2022-09-20T22:09:09.261Z,5.70
2022-09-20T22:11:41.015Z,2.65
2022-09-20T22:14:10.495Z,3.60
2022-09-20T22:16:41.151Z,3.90
2022-09-20T22:19:11.020Z,20.73
2022-09-20T22:21:42.139Z,4.53
2022-09-20T22:24:12.467Z,8.00
2022-09-20T22:26:42.711Z,5.15
2022-09-20T22:29:11.635Z,2.90
2022-09-20T22:31:45.440Z,2.78
2022-09-20T22:36:45.623Z,1.77
2022-09-20T22:39:14.494Z,3.85
2022-09-20T22:41:43.582Z,2.60
2022-09-20T22:44:12.840Z,2.65
2022-09-20T22:46:41.513Z,3.50
2022-09-20T22:49:10.887Z,2.88
2022-09-20T22:51:39.647Z,2.60
2022-09-20T22:54:11.082Z,5.00
2022-09-20T22:56:41.487Z,5.28
2022-09-20T22:59:11.851Z,2.83
2022-09-20T23:01:42.562Z,2.60
2022-09-20T23:04:13.139Z,4.38
2022-09-20T23:06:43.540Z,3.67
2022-09-20T23:09:15.807Z,7.03
2022-09-20T23:11:44.787Z,4.70
2022-09-20T23:14:14.627Z,4.78
2022-09-20T23:16:43.599Z,7.85
2022-09-20T23:19:12.831Z,4.75
2022-09-20T23:21:42.631Z,6.07
2022-09-20T23:24:17.294Z,5.03
2022-09-20T23:26:46.179Z,5.40
2022-09-20T23:29:16.667Z,4.22
2022-09-20T23:31:47.305Z,5.82
2022-09-20T23:34:17.495Z,3.65
2022-09-20T23:36:46.839Z,4.72
2022-09-20T23:39:16.968Z,6.18
2022-09-20T23:41:50.577Z,4.32
2022-09-20T23:44:19.394Z,2.83
2022-09-20T23:46:47.701Z,4.43
2022-09-20T23:49:16.501Z,4.07
2022-09-20T23:51:44.827Z,4.78
2022-09-20T23:54:13.272Z,5.30
2022-09-20T23:56:43.124Z,4.65
2022-09-20T23:59:11.536Z,8.45
